Time;durP1;ratioP1;P1;durP2;ratioP2;P2;SDS_P1;SDS_P2;PMS_P1;PMS_P2;Temp;Humidity;BMP_temperature;BMP_pressure;BME280_temperature;BME280_humidity;BME280_pressure;Samples;Min_cycle;Max_cycle;Signal;HPM_P1;HPM_P2
2022/08/23 00:01:56;;;;;;;29.27;22.20;;;;;;;21.09;100.00;97607.16;5071844;28;20179;-58
2022/08/23 00:04:26;;;;;;;26.27;22.60;;;;;;;21.11;100.00;97602.50;5072640;28;20657;-57
2022/08/23 00:06:54;;;;;;;28.52;22.27;;;;;;;21.22;100.00;97612.50;5072112;28;20168;-58
2022/08/23 00:09:21;;;;;;;27.52;22.95;;;;;;;21.19;100.00;97610.25;5071726;28;20577;-58
2022/08/23 00:11:53;;;;;;;29.08;23.23;;;;;;;21.12;100.00;97594.44;5071711;28;20168;-58
2022/08/23 00:14:23;;;;;;;28.35;21.42;;;;;;;21.14;100.00;97596.84;5071634;28;20191;-58
2022/08/23 00:16:49;;;;;;;25.20;20.98;;;;;;;21.26;100.00;97600.59;5071962;28;20535;-58
2022/08/23 00:19:16;;;;;;;25.67;21.35;;;;;;;21.31;100.00;97603.47;5071660;28;20645;-58
2022/08/23 00:21:44;;;;;;;26.95;22.67;;;;;;;21.36;100.00;97601.06;5071938;28;20184;-57
2022/08/23 00:24:11;;;;;;;24.90;20.83;;;;;;;21.38;100.00;97599.88;5071630;28;20176;-58
2022/08/23 00:26:54;;;;;;;26.33;21.35;;;;;;;21.41;100.00;97596.03;5071594;28;20229;-58
2022/08/23 00:29:22;;;;;;;32.17;21.08;;;;;;;21.40;100.00;97591.78;5071791;28;20211;-58
2022/08/23 00:31:47;;;;;;;28.08;21.60;;;;;;;21.45;100.00;97589.41;5071558;28;20169;-58
2022/08/23 00:34:13;;;;;;;27.00;20.77;;;;;;;21.30;100.00;97600.03;5071744;28;20193;-57
2022/08/23 00:36:39;;;;;;;28.67;20.70;;;;;;;21.44;100.00;97606.22;5072379;28;20268;-58
2022/08/23 00:39:05;;;;;;;24.10;20.98;;;;;;;21.54;100.00;97609.28;5075570;28;20259;-58
2022/08/23 00:41:33;;;;;;;23.40;20.23;;;;;;;21.48;100.00;97610.06;5075226;28;20169;-58
2022/08/23 00:49:33;;;;;;;25.65;21.42;;;;;;;21.61;100.00;97623.34;5075680;28;20226;-58
2022/08/23 00:52:16;;;;;;;22.95;20.40;;;;;;;21.50;100.00;97624.66;5075121;28;20210;-58
2022/08/23 00:54:42;;;;;;;24.88;20.02;;;;;;;21.45;100.00;97628.88;5075287;28;20184;-58
2022/08/23 00:57:12;;;;;;;26.48;20.77;;;;;;;21.54;100.00;97635.63;5075272;28;20172;-57
2022/08/23 00:59:38;;;;;;;25.85;20.02;;;;;;;21.50;100.00;97629.13;5075215;28;20163;-58
2022/08/23 01:02:04;;;;;;;25.25;20.98;;;;;;;21.58;100.00;97635.06;5075164;28;20165;-58
2022/08/23 01:04:35;;;;;;;27.02;21.65;;;;;;;21.59;100.00;97639.31;5074852;28;20234;-58
2022/08/23 01:07:29;;;;;;;23.58;20.45;;;;;;;21.73;100.00;97637.63;5075136;28;20165;-58
2022/08/23 01:10:00;;;;;;;22.80;19.15;;;;;;;21.82;100.00;97636.44;5032593;28;20184;-58
2022/08/23 01:12:38;;;;;;;24.52;20.15;;;;;;;21.85;100.00;97638.72;5074974;28;20206;-58
2022/08/23 01:15:09;;;;;;;27.02;20.20;;;;;;;21.95;100.00;97649.69;5075170;28;20653;-57
2022/08/23 01:17:43;;;;;;;23.55;18.45;;;;;;;21.89;100.00;97651.28;5074665;28;20161;-58
2022/08/23 01:20:13;;;;;;;29.55;20.58;;;;;;;21.73;100.00;97642.88;5074906;28;20161;-57
2022/08/23 01:22:51;;;;;;;22.65;19.48;;;;;;;21.77;100.00;97649.38;5074849;28;20160;-58
2022/08/23 01:25:20;;;;;;;25.95;20.80;;;;;;;21.67;100.00;97659.44;5074435;28;20218;-58
2022/08/23 01:27:46;;;;;;;27.25;20.42;;;;;;;21.39;100.00;97648.06;5074690;28;20180;-58
2022/08/23 01:30:14;;;;;;;27.70;20.83;;;;;;;21.30;100.00;97626.34;5074694;28;20199;-57
2022/08/23 01:32:50;;;;;;;26.35;20.95;;;;;;;21.23;100.00;97630.75;5074911;28;20176;-58
2022/08/23 01:35:17;;;;;;;25.40;21.52;;;;;;;21.26;100.00;97630.34;5074552;28;20220;-58
2022/08/23 01:37:43;;;;;;;22.15;19.75;;;;;;;21.32;100.00;97631.44;5074222;28;20176;-57
2022/08/23 01:40:09;;;;;;;23.92;20.08;;;;;;;21.48;100.00;97636.38;5074509;28;20185;-57
2022/08/23 01:42:35;;;;;;;24.05;19.25;;;;;;;21.58;100.00;97644.78;5074428;28;20193;-58
2022/08/23 01:45:00;;;;;;;23.27;19.10;;;;;;;21.65;100.00;97656.16;5074164;28;20322;-58
2022/08/23 01:47:26;;;;;;;26.08;22.48;;;;;;;21.67;100.00;97646.25;5074046;28;20230;-58
2022/08/23 01:49:51;;;;;;;28.33;20.30;;;;;;;21.70;100.00;97635.38;5074046;28;20166;-58
2022/08/23 01:52:18;;;;;;;25.83;19.38;;;;;;;21.80;100.00;97633.19;5073707;28;20222;-58
2022/08/23 01:54:43;;;;;;;22.05;18.67;;;;;;;21.90;100.00;97621.31;5073840;28;20188;-58
2022/08/23 01:57:09;;;;;;;23.33;18.52;;;;;;;21.93;100.00;97630.63;5073931;28;20230;-58
2022/08/23 01:59:36;;;;;;;24.15;19.48;;;;;;;21.89;100.00;97627.59;5074060;28;20179;-58
2022/08/23 02:02:02;;;;;;;25.08;21.00;;;;;;;21.90;100.00;97634.47;5073813;28;20168;-58
2022/08/23 02:04:28;;;;;;;24.15;20.33;;;;;;;21.94;100.00;97627.00;5073711;28;20188;-58
2022/08/23 02:06:53;;;;;;;26.63;21.70;;;;;;;21.79;100.00;97608.69;5073934;28;20177;-58
2022/08/23 02:09:19;;;;;;;25.30;22.60;;;;;;;21.55;100.00;97616.19;5073656;28;20195;-58
2022/08/23 02:11:45;;;;;;;26.85;19.95;;;;;;;21.75;100.00;97630.34;5073543;28;20676;-58
2022/08/23 02:14:17;;;;;;;27.38;20.58;;;;;;;21.71;100.00;97631.72;5073458;28;20196;-58
2022/08/23 02:16:47;;;;;;;26.02;21.38;;;;;;;21.75;100.00;97627.69;5073777;28;20222;-57
2022/08/23 02:19:14;;;;;;;25.67;20.58;;;;;;;21.59;100.00;97617.44;5073432;28;20248;-58
2022/08/23 02:21:41;;;;;;;25.80;20.00;;;;;;;21.24;100.00;97634.19;5073923;28;20521;-58
2022/08/23 02:24:13;;;;;;;26.15;21.27;;;;;;;21.16;100.00;97632.50;5073234;28;20255;-58
2022/08/23 02:26:41;;;;;;;25.27;20.42;;;;;;;21.20;100.00;97659.22;5073606;28;20609;-58
2022/08/23 02:29:07;;;;;;;25.48;19.75;;;;;;;21.11;100.00;97641.97;5073516;28;20208;-58
2022/08/23 02:31:33;;;;;;;26.80;20.55;;;;;;;20.98;100.00;97647.13;5056088;28;20200;-58
2022/08/23 02:33:59;;;;;;;25.75;19.88;;;;;;;21.02;100.00;97646.53;5073325;28;20192;-58
2022/08/23 02:36:25;;;;;;;23.45;19.80;;;;;;;21.16;100.00;97642.22;5073252;28;20173;-58
2022/08/23 02:38:53;;;;;;;24.70;19.90;;;;;;;21.07;100.00;97649.44;5073104;28;20208;-58
2022/08/23 02:41:19;;;;;;;23.15;19.73;;;;;;;21.08;100.00;97666.00;5073584;28;20177;-58
2022/08/23 02:43:44;;;;;;;23.98;19.55;;;;;;;21.13;100.00;97684.69;5072966;28;20173;-58
2022/08/23 02:46:10;;;;;;;23.15;19.70;;;;;;;21.21;100.00;97688.00;5072945;28;20176;-58
2022/08/23 02:48:36;;;;;;;25.05;20.67;;;;;;;21.15;100.00;97685.31;5073104;28;20584;-58
2022/08/23 02:51:04;;;;;;;24.30;19.13;;;;;;;20.98;100.00;97649.75;5072803;28;20661;-58
2022/08/23 02:53:30;;;;;;;25.38;22.52;;;;;;;21.13;100.00;97679.41;5072575;28;20208;-58
2022/08/23 02:55:56;;;;;;;24.50;19.58;;;;;;;21.15;100.00;97674.81;5073263;28;20689;-58
2022/08/23 02:58:21;;;;;;;23.77;19.38;;;;;;;21.04;100.00;97670.84;5072686;28;20251;-58
2022/08/23 03:00:48;;;;;;;23.98;20.15;;;;;;;21.03;100.00;97665.78;5072446;28;20175;-58
2022/08/23 03:03:15;;;;;;;24.08;21.27;;;;;;;21.13;100.00;97667.09;5072538;28;20180;-58
2022/08/23 03:05:41;;;;;;;24.00;20.25;;;;;;;21.18;100.00;97671.78;5072549;28;20179;-58
2022/08/23 03:08:07;;;;;;;24.70;20.35;;;;;;;21.11;100.00;97668.28;5072506;28;20172;-58
2022/08/23 03:10:32;;;;;;;23.25;19.98;;;;;;;21.34;100.00;97672.31;5072481;28;20176;-58
2022/08/23 03:12:58;;;;;;;26.08;20.95;;;;;;;21.33;100.00;97675.16;5072406;28;20218;-58
2022/08/23 03:15:23;;;;;;;23.88;20.30;;;;;;;21.12;100.00;97669.91;5072574;28;20196;-58
2022/08/23 03:17:48;;;;;;;24.30;20.42;;;;;;;20.94;100.00;97661.63;5072606;28;20173;-58
2022/08/23 03:20:14;;;;;;;25.15;19.13;;;;;;;20.99;100.00;97678.47;5072592;28;20164;-58
2022/08/23 03:22:40;;;;;;;24.48;18.90;;;;;;;20.99;100.00;97678.47;5054371;28;20631;-59
2022/08/23 03:25:06;;;;;;;22.42;18.55;;;;;;;21.06;100.00;97689.91;5072252;28;20175;-58
2022/08/23 03:27:31;;;;;;;22.75;18.90;;;;;;;20.96;100.00;97675.41;5072169;28;20180;-58
2022/08/23 03:29:57;;;;;;;24.52;19.20;;;;;;;20.93;100.00;97679.22;5072748;28;20179;-58
2022/08/23 03:32:23;;;;;;;22.88;18.88;;;;;;;20.89;100.00;97671.91;5072197;28;20270;-58
2022/08/23 03:34:48;;;;;;;20.98;17.60;;;;;;;21.06;100.00;97682.00;5072080;28;20192;-59
2022/08/23 03:37:13;;;;;;;22.73;19.20;;;;;;;20.89;100.00;97678.00;5072085;28;20165;-58
2022/08/23 03:39:39;;;;;;;19.55;17.42;;;;;;;20.96;100.00;97662.25;5072076;28;20557;-58
2022/08/23 03:42:05;;;;;;;21.88;18.30;;;;;;;21.16;100.00;97684.31;5072360;28;20184;-58
2022/08/23 03:44:31;;;;;;;21.02;18.45;;;;;;;21.13;100.00;97677.63;5072587;28;20173;-58
2022/08/23 03:46:57;;;;;;;23.63;19.10;;;;;;;21.04;100.00;97672.66;5071946;28;20719;-57
2022/08/23 03:49:23;;;;;;;23.40;18.67;;;;;;;21.10;100.00;97677.19;5072207;28;20180;-58
2022/08/23 03:51:49;;;;;;;20.90;18.60;;;;;;;21.10;100.00;97679.81;5071541;28;20216;-58
2022/08/23 03:54:14;;;;;;;20.80;18.10;;;;;;;21.00;100.00;97680.13;5071044;28;20696;-58
2022/08/23 03:56:50;;;;;;;25.02;19.38;;;;;;;21.06;100.00;97678.53;5071334;28;20175;-58
2022/08/23 03:59:16;;;;;;;22.75;17.10;;;;;;;21.01;100.00;97680.91;5071018;28;20213;-58
2022/08/23 04:01:42;;;;;;;24.13;18.38;;;;;;;21.00;100.00;97687.19;5071480;28;20168;-58
2022/08/23 04:04:08;;;;;;;20.63;17.80;;;;;;;21.13;100.00;97690.78;5070970;28;20195;-58
2022/08/23 04:06:33;;;;;;;22.10;17.05;;;;;;;21.14;100.00;97692.38;5070964;28;20211;-58
2022/08/23 04:08:59;;;;;;;21.08;16.98;;;;;;;21.17;100.00;97681.50;5071202;28;20168;-58
2022/08/23 04:11:25;;;;;;;18.10;15.38;;;;;;;21.18;100.00;97700.72;5071608;28;20176;-58
2022/08/23 04:13:50;;;;;;;19.45;16.52;;;;;;;21.32;100.00;97705.13;5074399;28;20699;-58
2022/08/23 04:16:17;;;;;;;19.80;15.55;;;;;;;21.41;100.00;97710.06;5074469;28;20179;-58
2022/08/23 04:18:44;;;;;;;17.20;14.73;;;;;;;21.42;100.00;97705.59;5074352;28;20176;-58
2022/08/23 04:21:14;;;;;;;17.83;15.70;;;;;;;21.48;100.00;97699.56;5074629;28;20164;-58
2022/08/23 04:23:39;;;;;;;16.48;14.75;;;;;;;21.44;100.00;97709.66;5074368;28;20241;-58
2022/08/23 04:26:05;;;;;;;22.02;15.80;;;;;;;21.41;100.00;97704.78;5074242;28;20196;-58
2022/08/23 04:28:35;;;;;;;15.95;14.45;;;;;;;21.46;100.00;97718.22;5074501;28;20233;-59
2022/08/23 04:31:02;;;;;;;15.77;14.10;;;;;;;21.39;100.00;97708.63;5074516;28;20369;-58
2022/08/23 04:33:30;;;;;;;16.48;14.25;;;;;;;21.38;100.00;97715.69;5074100;28;20275;-58
2022/08/23 04:35:56;;;;;;;15.15;12.65;;;;;;;21.37;100.00;97713.25;5074350;28;20543;-58
2022/08/23 04:38:22;;;;;;;13.93;12.43;;;;;;;21.38;100.00;97709.63;5074396;28;20294;-58
2022/08/23 04:43:31;;;;;;;14.20;12.27;;;;;;;21.50;100.00;97710.75;5074373;28;20229;-58
2022/08/23 04:45:56;;;;;;;12.27;10.98;;;;;;;21.57;100.00;97714.25;5073577;28;20181;-58
2022/08/23 04:48:22;;;;;;;16.20;11.52;;;;;;;21.57;100.00;97703.69;5074154;28;20211;-58
2022/08/23 04:50:48;;;;;;;13.45;11.70;;;;;;;21.56;100.00;97707.34;5073913;28;20184;-58
2022/08/23 04:53:16;;;;;;;12.65;11.35;;;;;;;21.64;100.00;97704.56;5032517;28;1200685;-58
2022/08/23 04:55:42;;;;;;;13.80;11.10;;;;;;;21.61;100.00;97703.13;5075040;28;20184;-58
2022/08/23 04:58:07;;;;;;;12.68;10.30;;;;;;;21.69;100.00;97702.22;5075289;28;20172;-58
2022/08/23 05:00:33;;;;;;;13.63;11.20;;;;;;;21.59;100.00;97702.50;5075195;28;20172;-58
2022/08/23 05:02:59;;;;;;;17.88;11.38;;;;;;;21.67;100.00;97710.28;5074930;28;20649;-58
2022/08/23 05:05:26;;;;;;;12.60;11.38;;;;;;;21.69;100.00;97710.91;5074875;28;20167;-58
2022/08/23 05:07:51;;;;;;;14.95;11.63;;;;;;;21.82;100.00;97718.94;5075060;28;20599;-58
2022/08/23 05:10:16;;;;;;;17.40;11.02;;;;;;;21.97;100.00;97722.25;5074745;28;20179;-58
2022/08/23 05:12:42;;;;;;;13.70;10.45;;;;;;;22.06;100.00;97717.66;5074631;28;20222;-58
2022/08/23 05:15:08;;;;;;;15.85;10.80;;;;;;;22.18;100.00;97729.28;5074560;28;20195;-58
2022/08/23 05:17:35;;;;;;;14.82;11.38;;;;;;;22.17;100.00;97732.91;5074672;28;20203;-58
2022/08/23 05:20:01;;;;;;;14.00;11.43;;;;;;;22.19;100.00;97723.81;5074854;28;20176;-58
2022/08/23 05:22:26;;;;;;;17.67;12.45;;;;;;;22.46;100.00;97737.97;5074365;28;20259;-58
2022/08/23 05:24:52;;;;;;;22.90;14.43;;;;;;;22.56;100.00;97731.34;5074762;28;20230;-58
2022/08/23 05:27:17;;;;;;;18.55;14.73;;;;;;;22.69;100.00;97723.50;5075037;28;20172;-58
2022/08/23 05:29:42;;;;;;;14.65;12.38;;;;;;;22.69;100.00;97720.84;5074451;28;20184;-58
2022/08/23 05:32:09;;;;;;;14.10;12.55;;;;;;;22.70;100.00;97709.28;5074367;28;20196;-58
2022/08/23 05:34:36;;;;;;;16.88;12.88;;;;;;;22.89;100.00;97718.28;5074551;28;20200;-58
2022/08/23 05:37:01;;;;;;;15.40;12.50;;;;;;;22.88;100.00;97709.53;5074553;28;20207;-58
2022/08/23 05:39:27;;;;;;;19.65;14.80;;;;;;;22.98;100.00;97722.34;5074283;28;20196;-58
2022/08/23 05:41:53;;;;;;;17.40;13.32;;;;;;;23.01;100.00;97706.94;5074155;28;20172;-58
2022/08/23 05:44:18;;;;;;;13.02;11.05;;;;;;;23.16;100.00;97704.94;5074407;28;20171;-58
2022/08/23 05:46:44;;;;;;;11.77;10.60;;;;;;;23.24;100.00;97707.41;5074112;28;20173;-58
2022/08/23 05:49:09;;;;;;;11.00;9.20;;;;;;;23.05;100.00;97678.31;5073971;28;20251;-58
2022/08/23 05:51:35;;;;;;;10.60;8.93;;;;;;;23.22;100.00;97709.47;5073837;28;20177;-58
2022/08/23 05:54:06;;;;;;;11.82;9.32;;;;;;;23.27;100.00;97714.13;5074184;28;20314;-58
2022/08/23 05:56:37;;;;;;;9.13;8.18;;;;;;;23.22;100.00;97713.91;5074238;28;20160;-58
2022/08/23 05:59:06;;;;;;;9.45;8.52;;;;;;;23.10;100.00;97704.94;5074635;28;20176;-58
2022/08/23 06:01:34;;;;;;;9.68;8.52;;;;;;;23.18;100.00;97717.94;5073726;28;20172;-58
2022/08/23 06:04:01;;;;;;;9.50;8.57;;;;;;;23.28;100.00;97718.38;5073788;28;20642;-58
2022/08/23 06:06:27;;;;;;;13.15;9.05;;;;;;;23.34;100.00;97720.22;5073586;28;20180;-58
2022/08/23 06:08:53;;;;;;;9.20;8.30;;;;;;;23.35;100.00;97711.28;5074744;28;20176;-58
2022/08/23 06:11:22;;;;;;;13.82;9.27;;;;;;;23.39;100.00;97710.69;5073887;28;20562;-58
2022/08/23 06:13:53;;;;;;;9.52;8.68;;;;;;;23.46;100.00;97714.16;5073713;28;20203;-58
2022/08/23 06:16:24;;;;;;;9.73;8.73;;;;;;;23.51;100.00;97719.66;5073817;28;20195;-58
2022/08/23 06:18:50;;;;;;;10.57;8.38;;;;;;;23.55;100.00;97715.56;5073797;28;20163;-58
2022/08/23 06:21:17;;;;;;;9.75;8.85;;;;;;;23.65;100.00;97725.75;5073390;28;20647;-58
2022/08/23 06:23:43;;;;;;;9.90;8.95;;;;;;;23.78;100.00;97722.06;5073639;28;20176;-58
2022/08/23 06:26:17;;;;;;;10.05;8.15;;;;;;;23.88;100.00;97731.47;5073313;28;20168;-58
2022/08/23 06:28:45;;;;;;;9.98;7.97;;;;;;;24.00;100.00;97729.81;5073576;28;20171;-58
2022/08/23 06:31:10;;;;;;;10.10;8.07;;;;;;;24.00;100.00;97735.91;5073184;28;20188;-58
2022/08/23 06:33:37;;;;;;;8.57;7.68;;;;;;;24.13;100.00;97738.53;5072909;28;20625;-58
2022/08/23 06:36:06;;;;;;;8.43;7.57;;;;;;;24.23;100.00;97739.75;5072510;28;20204;-58
2022/08/23 06:38:33;;;;;;;11.38;8.15;;;;;;;24.30;100.00;97732.59;5073021;28;20604;-58
2022/08/23 06:41:09;;;;;;;11.60;8.15;;;;;;;24.48;100.00;97735.38;5073042;28;20164;-58
2022/08/23 06:43:36;;;;;;;7.95;7.20;;;;;;;24.52;100.00;97739.25;5073014;28;20172;-58
2022/08/23 06:46:23;;;;;;;8.15;7.35;;;;;;;24.63;100.00;97736.00;5072936;28;20259;-58
2022/08/23 06:48:48;;;;;;;8.50;7.70;;;;;;;24.69;100.00;97740.44;5073266;28;20232;-58
2022/08/23 06:51:27;;;;;;;8.48;7.28;;;;;;;24.82;100.00;97740.38;5072837;28;20620;-58
2022/08/23 06:53:55;;;;;;;8.32;7.47;;;;;;;24.99;100.00;97743.34;5072597;28;20289;-58
2022/08/23 06:56:26;;;;;;;9.70;7.53;;;;;;;25.06;100.00;97744.94;5072749;28;20181;-58
2022/08/23 06:58:52;;;;;;;9.32;7.32;;;;;;;25.27;100.00;97757.91;5072999;28;20239;-58
2022/08/23 07:01:24;;;;;;;9.10;7.38;;;;;;;25.38;100.00;97753.75;5072874;28;20204;-58
2022/08/23 07:03:56;;;;;;;9.82;7.22;;;;;;;25.48;100.00;97754.91;5072547;28;20176;-58
2022/08/23 07:06:23;;;;;;;8.68;7.72;;;;;;;25.54;100.00;97758.53;5072570;28;20291;-58
2022/08/23 07:08:49;;;;;;;8.20;7.43;;;;;;;25.61;100.00;97770.69;5072509;28;20716;-58
2022/08/23 07:11:15;;;;;;;7.63;7.03;;;;;;;25.71;100.00;97764.94;5072479;28;20251;-58
2022/08/23 07:13:41;;;;;;;8.40;7.35;;;;;;;25.78;100.00;97777.09;5072488;28;20279;-58
2022/08/23 07:16:06;;;;;;;7.50;6.85;;;;;;;25.83;100.00;97784.44;5072401;28;20683;-58
2022/08/23 07:18:32;;;;;;;8.02;6.82;;;;;;;25.88;99.71;97785.38;5072399;28;20251;-58
2022/08/23 07:20:59;;;;;;;9.07;7.13;;;;;;;25.91;100.00;97785.00;5072604;28;20172;-58
2022/08/23 07:23:26;;;;;;;11.20;8.38;;;;;;;25.89;100.00;97797.59;5072280;28;20168;-58
2022/08/23 07:25:52;;;;;;;8.68;7.78;;;;;;;25.95;100.00;97796.78;5072485;28;20173;-58
2022/08/23 07:28:18;;;;;;;8.98;7.75;;;;;;;25.92;100.00;97799.06;5072514;28;20177;-58
2022/08/23 07:30:44;;;;;;;8.68;7.68;;;;;;;25.98;99.96;97793.72;5072229;28;20229;-59
2022/08/23 07:33:10;;;;;;;10.57;7.75;;;;;;;26.12;99.58;97797.84;5072108;28;20176;-57
2022/08/23 07:35:35;;;;;;;8.90;7.88;;;;;;;26.24;100.00;97796.13;5072075;28;20207;-57
2022/08/23 07:38:01;;;;;;;12.52;8.07;;;;;;;26.34;100.00;97785.00;5072088;28;20189;-57
2022/08/23 07:40:26;;;;;;;11.80;8.52;;;;;;;26.48;99.81;97786.50;5072006;28;20180;-57
2022/08/23 07:42:55;;;;;;;8.88;7.53;;;;;;;26.60;98.58;97793.53;5072348;28;20210;-57
2022/08/23 07:45:20;;;;;;;8.63;7.80;;;;;;;26.47;98.92;97791.00;5072192;28;20552;-58
2022/08/23 07:47:46;;;;;;;13.18;8.60;;;;;;;26.73;97.14;97804.03;5071988;28;20169;-57
2022/08/23 07:50:11;;;;;;;10.18;7.65;;;;;;;26.86;96.83;97793.25;5071951;28;20251;-59
2022/08/23 07:52:37;;;;;;;8.90;7.78;;;;;;;27.00;93.80;97807.97;5071807;28;20269;-59
2022/08/23 07:55:02;;;;;;;9.15;8.23;;;;;;;27.09;93.38;97801.34;5072402;28;20230;-59
2022/08/23 07:57:28;;;;;;;11.60;7.80;;;;;;;27.22;93.20;97803.84;5071894;28;20176;-61
2022/08/23 07:59:53;;;;;;;10.05;7.97;;;;;;;27.33;92.18;97823.53;5072161;28;20281;-58
2022/08/23 08:02:19;;;;;;;10.40;8.23;;;;;;;27.25;92.32;97823.84;5072091;28;20184;-57
2022/08/23 08:04:44;;;;;;;9.70;8.07;;;;;;;27.24;94.00;97815.06;5071804;28;20600;-57
2022/08/23 08:07:10;;;;;;;8.80;7.78;;;;;;;27.27;94.33;97817.28;5071764;28;20268;-58
2022/08/23 08:09:35;;;;;;;9.50;8.20;;;;;;;27.31;93.31;97813.16;5071731;28;20261;-57
2022/08/23 08:12:00;;;;;;;10.43;8.38;;;;;;;27.45;92.51;97822.56;5071782;28;20204;-57
2022/08/23 08:14:26;;;;;;;11.07;7.43;;;;;;;27.52;91.09;97812.63;5071631;28;20202;-57
2022/08/23 08:16:53;;;;;;;10.93;8.25;;;;;;;27.57;90.52;97807.44;5071748;28;20230;-57
2022/08/23 08:19:19;;;;;;;11.93;7.70;;;;;;;27.64;90.87;97812.69;5071946;28;20526;-57
2022/08/23 08:21:45;;;;;;;8.65;7.75;;;;;;;27.64;89.88;97802.84;5071668;28;20169;-57
2022/08/23 08:24:12;;;;;;;8.70;7.78;;;;;;;27.73;90.60;97811.31;5071624;28;20196;-57
2022/08/23 08:26:40;;;;;;;11.32;8.07;;;;;;;27.76;90.68;97809.00;5072155;28;20179;-57
2022/08/23 08:29:05;;;;;;;9.40;7.25;;;;;;;27.51;90.88;97812.88;5071872;28;20168;-57
2022/08/23 08:31:31;;;;;;;10.27;8.38;;;;;;;27.34;92.64;97815.34;5071585;28;20181;-57
2022/08/23 08:33:57;;;;;;;11.95;8.70;;;;;;;27.24;92.06;97812.41;5072230;28;20733;-57
2022/08/23 08:36:36;;;;;;;9.30;8.23;;;;;;;27.19;94.67;97799.00;5071716;28;20180;-57
2022/08/23 08:39:05;;;;;;;9.32;8.13;;;;;;;27.36;93.05;97807.97;5071826;28;20234;-57
2022/08/23 08:41:50;;;;;;;10.18;8.63;;;;;;;27.38;93.67;97808.56;5071495;28;20177;-58
2022/08/23 08:44:37;;;;;;;11.23;7.95;;;;;;;27.48;93.04;97805.34;5072052;28;20153;-57
2022/08/23 08:47:08;;;;;;;10.35;7.57;;;;;;;27.67;94.45;97815.69;5071685;28;20176;-57
2022/08/23 08:49:46;;;;;;;9.57;8.55;;;;;;;27.81;92.37;97808.38;5071649;28;20183;-57
2022/08/23 08:52:54;;;;;;;11.60;7.68;;;;;;;27.43;92.47;97803.38;5071407;28;20208;-57
2022/08/23 08:55:24;;;;;;;10.80;7.63;;;;;;;27.47;95.10;97787.78;5060455;28;20208;-58
2022/08/23 08:57:52;;;;;;;9.82;8.35;;;;;;;27.63;94.64;97790.59;5072765;28;20546;-57
2022/08/23 09:00:31;;;;;;;10.00;7.68;;;;;;;27.72;93.53;97785.75;5075731;28;20172;-58
2022/08/23 09:02:58;;;;;;;10.88;7.70;;;;;;;27.90;92.75;97791.84;5074977;28;20153;-58
2022/08/23 09:05:30;;;;;;;8.85;7.95;;;;;;;28.05;92.60;97802.06;5074891;28;20617;-57
2022/08/23 09:08:14;;;;;;;9.30;7.95;;;;;;;28.21;88.81;97812.03;5074884;28;20622;-58
2022/08/23 09:11:15;;;;;;;9.55;8.55;;;;;;;28.22;88.73;97819.75;5075411;28;20161;-57
2022/08/23 09:14:08;;;;;;;11.98;8.73;;;;;;;28.35;88.80;97819.53;5042489;28;20190;-57
2022/08/23 09:16:51;;;;;;;11.32;8.82;;;;;;;28.44;88.36;97828.81;5074979;28;20222;-57
2022/08/23 09:19:18;;;;;;;10.93;8.73;;;;;;;28.61;85.62;97826.25;5074911;28;20179;-58
2022/08/23 09:22:12;;;;;;;11.80;8.88;;;;;;;28.59;85.35;97821.19;5074865;28;20176;-57
2022/08/23 09:24:39;;;;;;;8.88;7.97;;;;;;;28.58;85.89;97822.22;5074576;28;20160;-57
2022/08/23 09:27:08;;;;;;;9.60;8.60;;;;;;;28.56;87.63;97821.63;5074459;28;20176;-57
2022/08/23 09:29:35;;;;;;;12.45;9.50;;;;;;;28.62;87.52;97826.03;5074465;28;20259;-57
2022/08/23 09:32:18;;;;;;;11.13;9.93;;;;;;;28.60;87.21;97821.97;5074973;28;20647;-57
2022/08/23 09:34:44;;;;;;;12.10;10.55;;;;;;;28.24;84.84;97819.53;5074623;28;20214;-57
2022/08/23 09:37:12;;;;;;;11.35;10.15;;;;;;;28.05;86.99;97818.00;5074263;28;20168;-58
2022/08/23 09:39:41;;;;;;;10.75;9.75;;;;;;;28.01;88.04;97811.53;5074251;28;20164;-58
2022/08/23 09:42:30;;;;;;;11.50;10.30;;;;;;;28.02;90.16;97805.97;5074262;28;20168;-57
2022/08/23 09:44:56;;;;;;;11.80;9.30;;;;;;;28.23;90.14;97802.75;5074537;28;20149;-58
2022/08/23 09:47:34;;;;;;;10.07;8.70;;;;;;;28.35;89.02;97800.91;5074435;28;20172;-58
2022/08/23 09:50:23;;;;;;;11.02;8.98;;;;;;;28.50;88.89;97805.81;5074349;28;20169;-57
2022/08/23 09:52:49;;;;;;;9.65;8.70;;;;;;;28.52;88.72;97791.19;5074009;28;20632;-57
2022/08/23 09:55:34;;;;;;;10.60;8.77;;;;;;;28.71;89.34;97803.34;5073920;28;20204;-58
2022/08/23 09:58:19;;;;;;;13.05;9.32;;;;;;;28.91;88.22;97808.28;5073892;28;20176;-58
2022/08/23 10:01:00;;;;;;;13.60;8.52;;;;;;;29.11;86.15;97806.06;5074176;28;20244;-57
2022/08/23 10:03:28;;;;;;;14.50;9.30;;;;;;;29.17;86.48;97808.59;5073867;28;20161;-57
2022/08/23 10:06:02;;;;;;;15.45;9.23;;;;;;;29.14;87.16;97811.72;5073800;28;20176;-58
2022/08/23 10:08:54;;;;;;;13.10;9.38;;;;;;;29.09;87.32;97790.28;5073607;28;20660;-58
2022/08/23 10:11:24;;;;;;;9.90;8.88;;;;;;;29.34;87.72;97805.97;5064433;28;20573;-58
2022/08/23 10:13:51;;;;;;;10.07;8.48;;;;;;;29.43;84.11;97801.91;5073578;28;20221;-58
2022/08/23 10:16:22;;;;;;;12.80;9.02;;;;;;;29.41;83.28;97807.47;5073845;28;20290;-58
2022/08/23 10:18:56;;;;;;;10.00;8.82;;;;;;;29.23;82.10;97799.66;5073797;28;20207;-58
2022/08/23 10:21:39;;;;;;;11.23;9.82;;;;;;;28.95;84.13;97796.09;5073785;28;20164;-58
2022/08/23 10:24:11;;;;;;;11.65;8.68;;;;;;;29.13;84.57;97791.44;5073979;28;20173;-58
2022/08/23 10:26:45;;;;;;;9.20;8.23;;;;;;;29.29;82.34;97789.88;5073326;28;20184;-58
2022/08/23 10:32:02;;;;;;;12.43;9.20;;;;;;;29.41;84.06;97796.78;5073903;28;20248;-58
2022/08/23 10:34:38;;;;;;;13.60;8.75;;;;;;;29.43;83.79;97800.03;5073135;28;20567;-58
2022/08/23 10:37:03;;;;;;;12.55;8.30;;;;;;;29.43;84.07;97797.34;5073100;28;20637;-57
2022/08/23 10:39:30;;;;;;;10.82;8.65;;;;;;;29.52;83.80;97803.09;5073115;28;20184;-57
2022/08/23 10:42:11;;;;;;;9.60;8.43;;;;;;;29.52;84.07;97798.59;5073320;28;20561;-57
2022/08/23 10:44:42;;;;;;;10.18;8.13;;;;;;;29.62;82.51;97793.47;5073314;28;20222;-57
2022/08/23 10:47:26;;;;;;;10.50;8.38;;;;;;;29.68;83.35;97797.81;5073286;28;20160;-57
2022/08/23 10:49:54;;;;;;;10.95;8.65;;;;;;;29.85;80.86;97792.53;5072888;28;20172;-58
2022/08/23 10:52:28;;;;;;;10.73;8.90;;;;;;;29.85;81.34;97797.88;5072626;28;20577;-58
2022/08/23 10:55:15;;;;;;;9.32;8.15;;;;;;;29.88;83.00;97800.03;5072781;28;20217;-58
2022/08/23 10:57:44;;;;;;;12.70;8.00;;;;;;;29.90;84.02;97796.06;5072765;28;20161;-58
2022/08/23 11:00:20;;;;;;;11.20;9.23;;;;;;;29.98;83.18;97781.53;5072724;28;20168;-57
2022/08/23 11:03:00;;;;;;;11.15;8.98;;;;;;;30.15;82.34;97799.16;5072631;28;20172;-58
2022/08/23 11:05:29;;;;;;;10.00;9.10;;;;;;;30.25;78.29;97793.22;5072909;28;20157;-58
2022/08/23 11:07:56;;;;;;;12.60;9.50;;;;;;;30.36;78.51;97795.78;5072546;28;20177;-57
2022/08/23 11:10:31;;;;;;;9.25;8.38;;;;;;;30.44;76.86;97792.66;5072752;28;20183;-58
2022/08/23 11:13:00;;;;;;;12.98;9.32;;;;;;;30.37;79.25;97797.38;5072442;28;20637;-58
2022/08/23 11:16:07;;;;;;;14.80;9.38;;;;;;;30.45;77.04;97796.16;5072288;28;20288;-58
2022/08/23 11:18:32;;;;;;;14.23;9.30;;;;;;;30.60;75.52;97791.84;5027990;28;20669;-58
2022/08/23 11:21:01;;;;;;;13.68;8.20;;;;;;;30.73;75.18;97785.38;5071998;28;20183;-58
2022/08/23 11:23:58;;;;;;;10.57;9.02;;;;;;;30.54;76.41;97782.13;5072561;28;20214;-58
2022/08/23 11:26:27;;;;;;;9.45;8.40;;;;;;;30.52;75.83;97778.91;5056224;28;20681;-58
2022/08/23 11:28:53;;;;;;;9.52;7.70;;;;;;;30.75;74.30;97776.06;5072263;28;20172;-58
2022/08/23 11:31:25;;;;;;;9.70;8.05;;;;;;;30.92;71.51;97774.13;5072506;28;20168;-58
2022/08/23 11:34:03;;;;;;;9.43;8.43;;;;;;;31.25;67.43;97778.53;5072400;28;20192;-58
2022/08/23 11:36:30;;;;;;;10.82;7.95;;;;;;;31.25;62.73;97765.97;5072097;28;20172;-58
2022/08/23 11:38:56;;;;;;;9.23;8.02;;;;;;;31.37;61.18;97769.31;5072116;28;20176;-58